Time;durP1;ratioP1;P1;durP2;ratioP2;P2;SDS_P1;SDS_P2;PMS_P1;PMS_P2;Temp;Humidity;BMP_temperature;BMP_pressure;BME280_temperature;BME280_humidity;BME280_pressure;Samples;Min_cycle;Max_cycle;Signal;HPM_P1;HPM_P2
2022/09/01 00:01:29;;;;;;;3.10;1.05;;;14.30;99.90;;;;;;7397195;19;20025;-77
2022/09/01 00:04:02;;;;;;;1.35;1.10;;;14.30;99.90;;;;;;7398806;19;20039;-77
2022/09/01 00:06:31;;;;;;;2.65;1.20;;;14.30;99.90;;;;;;7398006;19;20037;-78
2022/09/01 00:08:59;;;;;;;1.50;1.00;;;14.30;99.90;;;;;;7395457;19;20022;-77
2022/09/01 00:11:27;;;;;;;2.47;1.10;;;14.30;99.90;;;;;;7398465;19;20019;-78
2022/09/01 00:13:53;;;;;;;3.15;1.13;;;14.30;99.90;;;;;;7397730;19;20077;-78
2022/09/01 00:16:20;;;;;;;2.55;1.33;;;14.30;99.90;;;;;;7399270;19;20018;-77
2022/09/01 00:18:49;;;;;;;3.08;1.20;;;14.20;99.90;;;;;;7394999;19;20027;-78
2022/09/01 00:21:21;;;;;;;1.45;1.00;;;14.20;99.90;;;;;;7395942;19;20018;-78
2022/09/01 00:23:46;;;;;;;1.43;0.87;;;14.20;99.90;;;;;;7399596;19;20088;-78
2022/09/01 00:26:13;;;;;;;1.75;1.13;;;14.20;99.90;;;;;;7395912;19;20022;-78
2022/09/01 00:28:39;;;;;;;3.65;1.10;;;14.10;99.90;;;;;;7397447;19;20023;-78
2022/09/01 00:31:07;;;;;;;1.35;1.20;;;14.10;99.90;;;;;;7397620;19;20010;-78
2022/09/01 00:33:36;;;;;;;2.13;1.17;;;14.10;99.90;;;;;;7397482;19;20015;-77
2022/09/01 00:36:04;;;;;;;2.33;1.20;;;14.10;99.90;;;;;;7398630;19;20025;-77
2022/09/01 00:38:32;;;;;;;1.45;1.10;;;14.00;99.90;;;;;;7396257;19;20360;-77
2022/09/01 00:40:59;;;;;;;1.75;1.20;;;14.00;99.90;;;;;;7395772;19;20382;-79
2022/09/01 00:43:44;;;;;;;3.53;1.25;;;13.90;99.90;;;;;;7397513;19;20022;-78
2022/09/01 00:46:15;;;;;;;3.00;1.08;;;13.90;99.90;;;;;;7398055;19;20014;-78
2022/09/01 00:48:41;;;;;;;1.25;0.90;;;13.90;99.90;;;;;;7395920;19;20015;-78
2022/09/01 00:51:11;;;;;;;3.10;1.20;;;13.90;99.90;;;;;;7392872;19;20034;-78
2022/09/01 00:53:39;;;;;;;1.27;0.85;;;13.90;99.90;;;;;;7395644;19;20356;-77
2022/09/01 00:56:06;;;;;;;2.67;1.10;;;13.90;99.90;;;;;;7396250;19;20021;-77
2022/09/01 00:58:34;;;;;;;2.38;1.10;;;13.80;99.90;;;;;;7395670;19;20019;-77
2022/09/01 01:01:01;;;;;;;1.63;1.20;;;13.80;99.90;;;;;;7397980;19;20044;-78
2022/09/01 01:03:29;;;;;;;2.67;1.30;;;13.90;99.90;;;;;;7396188;19;20035;-77
2022/09/01 01:05:57;;;;;;;1.67;1.20;;;13.80;99.90;;;;;;7397788;19;20042;-78
2022/09/01 01:08:33;;;;;;;3.33;1.10;;;13.80;99.90;;;;;;7395570;19;20019;-78
2022/09/01 01:11:06;;;;;;;1.75;1.20;;;13.80;99.90;;;;;;7396616;19;20018;-77
2022/09/01 01:13:36;;;;;;;;;;;13.70;99.90;;;;;;7398032;19;20030;-78
2022/09/01 01:16:06;;;;;;;2.35;1.10;;;13.70;99.90;;;;;;7396781;19;19922;-78
2022/09/01 01:18:32;;;;;;;2.10;1.40;;;13.70;99.90;;;;;;7393655;19;20029;-77
2022/09/01 01:24:20;;;;;;;2.15;1.38;;;13.70;99.90;;;;;;7397319;19;20020;-77
2022/09/01 01:26:46;;;;;;;1.88;1.20;;;13.60;99.90;;;;;;7394675;19;20037;-77
2022/09/01 01:29:14;;;;;;;1.70;1.20;;;13.70;99.90;;;;;;7395912;19;20011;-78
2022/09/01 01:31:40;;;;;;;3.42;1.10;;;13.70;99.90;;;;;;7395386;19;20025;-77
2022/09/01 01:34:06;;;;;;;1.35;1.00;;;13.70;99.90;;;;;;7395796;19;20015;-77
2022/09/01 01:36:35;;;;;;;2.08;1.20;;;13.60;99.90;;;;;;7395973;19;20014;-78
2022/09/01 01:39:12;;;;;;;2.58;1.20;;;13.50;99.90;;;;;;7396520;19;20014;-78
2022/09/01 01:41:42;;;;;;;2.67;1.10;;;13.50;99.90;;;;;;7395261;19;20031;-77
2022/09/01 01:44:08;;;;;;;1.33;1.23;;;13.40;99.90;;;;;;7395549;19;20574;-78
2022/09/01 01:46:36;;;;;;;4.05;1.40;;;13.40;99.90;;;;;;7396010;19;20484;-77
2022/09/01 01:49:03;;;;;;;2.13;1.20;;;13.30;99.90;;;;;;7395346;19;20018;-78
2022/09/01 01:51:31;;;;;;;2.58;1.23;;;13.40;99.90;;;;;;7392956;19;20018;-78
2022/09/01 01:54:04;;;;;;;2.63;1.50;;;13.40;99.90;;;;;;7395030;19;20356;-78
2022/09/01 01:56:31;;;;;;;2.30;1.40;;;13.40;99.90;;;;;;7393552;19;20014;-78
2022/09/01 01:58:58;;;;;;;1.48;1.38;;;13.50;99.90;;;;;;7395647;19;20018;-78
2022/09/01 02:01:27;;;;;;;2.30;1.50;;;13.40;99.90;;;;;;7395353;19;20014;-77
2022/09/01 02:03:54;;;;;;;3.40;1.65;;;13.50;99.90;;;;;;7395784;19;20483;-78
2022/09/01 02:06:23;;;;;;;3.58;1.30;;;13.50;99.90;;;;;;7393424;19;20018;-77
2022/09/01 02:08:51;;;;;;;1.98;1.20;;;13.50;99.90;;;;;;7393871;19;20018;-78
2022/09/01 02:11:18;;;;;;;5.32;1.50;;;13.40;99.90;;;;;;7393151;19;20018;-78
2022/09/01 02:13:45;;;;;;;2.40;1.40;;;13.40;99.90;;;;;;7394993;19;20086;-78
2022/09/01 02:16:13;;;;;;;2.67;1.50;;;13.30;99.90;;;;;;7394239;19;20014;-78
2022/09/01 02:18:47;;;;;;;2.72;1.45;;;13.30;99.90;;;;;;7394333;19;20018;-78
2022/09/01 02:21:18;;;;;;;2.78;1.50;;;13.30;99.90;;;;;;7389652;19;20018;-78
2022/09/01 02:23:46;;;;;;;1.75;1.55;;;13.30;99.90;;;;;;7391301;19;20046;-78
2022/09/01 02:26:14;;;;;;;2.15;1.58;;;13.30;99.90;;;;;;7393434;19;20625;-78
2022/09/01 02:28:41;;;;;;;2.80;1.55;;;13.30;99.90;;;;;;7393737;19;20014;-78
2022/09/01 02:31:09;;;;;;;2.03;1.70;;;13.30;99.90;;;;;;7393808;19;20014;-78
2022/09/01 02:33:38;;;;;;;2.47;1.58;;;13.30;99.90;;;;;;7392276;19;20078;-78
2022/09/01 02:36:09;;;;;;;2.35;1.50;;;13.40;99.90;;;;;;7393919;19;20468;-78
2022/09/01 02:38:34;;;;;;;3.05;1.90;;;13.30;99.90;;;;;;7394760;19;20026;-78
2022/09/01 02:41:02;;;;;;;2.38;1.60;;;13.30;99.90;;;;;;7391255;19;20551;-78
2022/09/01 02:43:30;;;;;;;3.60;1.50;;;13.30;99.90;;;;;;7399048;19;20082;-78
2022/09/01 02:45:58;;;;;;;2.28;1.85;;;13.30;99.90;;;;;;7401249;19;20015;-78
2022/09/01 02:48:36;;;;;;;3.40;1.83;;;13.30;99.90;;;;;;7402240;19;20037;-78
2022/09/01 02:51:17;;;;;;;2.72;1.90;;;13.30;99.90;;;;;;7400237;19;20021;-78
2022/09/01 02:53:50;;;;;;;3.25;1.98;;;13.30;99.90;;;;;;7401877;19;20580;-78
2022/09/01 02:56:21;;;;;;;2.60;1.90;;;13.30;99.90;;;;;;7399403;19;20019;-78
2022/09/01 02:58:48;;;;;;;8.35;7.03;;;13.20;99.90;;;;;;7399977;19;20021;-78
2022/09/01 03:01:19;;;;;;;4.22;3.25;;;13.20;99.90;;;;;;7401427;19;20014;-78
2022/09/01 03:03:45;;;;;;;4.97;2.80;;;13.20;99.90;;;;;;7400132;19;20022;-80
2022/09/01 03:06:11;;;;;;;2.05;1.80;;;13.10;99.90;;;;;;7400365;19;20086;-78
2022/09/01 03:08:38;;;;;;;1.75;1.65;;;13.10;99.90;;;;;;7400874;19;20346;-78
2022/09/01 03:11:09;;;;;;;3.28;2.10;;;13.10;99.90;;;;;;7396990;19;20027;-78
2022/09/01 03:13:37;;;;;;;1.90;1.70;;;13.10;99.90;;;;;;7402373;19;20452;-78
2022/09/01 03:16:04;;;;;;;2.95;2.10;;;13.10;99.90;;;;;;7399871;19;20010;-78
2022/09/01 03:18:30;;;;;;;3.97;2.00;;;13.10;99.90;;;;;;7396277;19;20514;-78
2022/09/01 03:20:56;;;;;;;2.83;1.92;;;13.10;99.90;;;;;;7396457;19;20019;-79
2022/09/01 03:23:24;;;;;;;2.35;1.92;;;13.10;99.90;;;;;;7397979;19;20052;-78
2022/09/01 03:25:50;;;;;;;2.00;1.77;;;13.10;99.90;;;;;;7398569;19;20021;-78
2022/09/01 03:28:16;;;;;;;2.08;1.88;;;13.10;99.90;;;;;;7397871;19;20480;-78
2022/09/01 03:30:49;;;;;;;2.95;1.80;;;13.10;99.90;;;;;;7401571;19;20086;-78
2022/09/01 03:33:18;;;;;;;2.10;1.90;;;13.10;99.90;;;;;;7396575;19;20011;-78
2022/09/01 03:35:44;;;;;;;3.33;1.90;;;13.10;99.90;;;;;;7397663;19;20019;-78
2022/09/01 03:38:21;;;;;;;2.72;2.00;;;13.10;99.90;;;;;;7398073;19;20014;-78
2022/09/01 03:40:51;;;;;;;4.47;1.90;;;13.10;99.90;;;;;;7395589;19;20007;-78
2022/09/01 03:43:22;;;;;;;2.15;1.80;;;13.10;99.90;;;;;;7396794;19;20022;-78
2022/09/01 03:45:48;;;;;;;1.90;1.77;;;13.20;99.90;;;;;;7397664;19;20017;-79
2022/09/01 03:48:15;;;;;;;2.65;2.05;;;13.20;99.90;;;;;;7396830;19;20034;-78
2022/09/01 03:50:46;;;;;;;2.70;1.98;;;13.20;99.90;;;;;;7396004;19;20337;-78
2022/09/01 03:53:14;;;;;;;3.45;1.90;;;13.20;99.90;;;;;;7395862;19;20367;-78
2022/09/01 03:55:43;;;;;;;3.88;1.77;;;13.20;99.90;;;;;;7397058;19;20018;-78
2022/09/01 03:58:11;;;;;;;1.67;1.58;;;13.20;99.90;;;;;;7396948;19;20014;-78
2022/09/01 04:00:40;;;;;;;2.65;1.60;;;13.30;99.90;;;;;;7397491;19;20379;-78
2022/09/01 04:03:07;;;;;;;4.55;1.70;;;13.30;99.90;;;;;;7398583;19;20021;-78
2022/09/01 04:05:39;;;;;;;2.75;1.83;;;13.20;99.90;;;;;;7396043;19;20011;-78
2022/09/01 04:08:09;;;;;;;3.75;1.88;;;13.30;99.90;;;;;;7395419;19;20066;-78
2022/09/01 04:10:50;;;;;;;2.08;1.50;;;13.30;99.90;;;;;;7398034;19;20023;-78
2022/09/01 04:13:18;;;;;;;3.15;1.90;;;13.30;99.90;;;;;;7397558;19;20025;-78
2022/09/01 04:15:44;;;;;;;2.83;1.70;;;13.30;99.90;;;;;;7396199;19;20007;-78
2022/09/01 04:18:18;;;;;;;2.75;1.77;;;13.30;99.90;;;;;;7399652;19;20680;-78
2022/09/01 04:20:48;;;;;;;3.05;1.80;;;13.40;99.90;;;;;;7395839;19;20029;-78
2022/09/01 04:23:15;;;;;;;1.60;1.50;;;13.40;99.90;;;;;;7396867;19;20066;-78
2022/09/01 04:25:41;;;;;;;4.57;1.83;;;13.40;99.90;;;;;;7394267;19;20018;-78
2022/09/01 04:28:16;;;;;;;2.83;1.70;;;13.40;99.90;;;;;;7395568;19;20021;-78
2022/09/01 04:30:42;;;;;;;3.22;1.58;;;13.40;99.90;;;;;;7397837;19;20021;-78
2022/09/01 04:33:09;;;;;;;3.28;1.98;;;13.40;99.90;;;;;;7397049;19;20014;-78
2022/09/01 04:35:39;;;;;;;2.30;1.80;;;13.30;99.90;;;;;;7395691;19;20085;-78
2022/09/01 04:38:07;;;;;;;2.92;1.85;;;13.30;99.90;;;;;;7397866;19;20078;-77
2022/09/01 04:40:40;;;;;;;5.00;1.90;;;13.30;99.90;;;;;;7393274;19;20022;-78
2022/09/01 04:43:06;;;;;;;4.35;1.95;;;13.30;99.90;;;;;;7398998;19;20015;-78
2022/09/01 04:45:36;;;;;;;1.88;1.70;;;13.30;99.90;;;;;;7398026;19;20015;-78
2022/09/01 04:48:04;;;;;;;4.95;2.10;;;13.30;99.90;;;;;;7398608;19;20014;-78
2022/09/01 04:50:31;;;;;;;3.03;2.25;;;13.30;99.90;;;;;;7395221;19;20035;-78
2022/09/01 04:53:01;;;;;;;3.30;2.05;;;13.20;99.90;;;;;;7395510;19;20021;-78
2022/09/01 04:55:28;;;;;;;3.47;2.35;;;13.20;99.90;;;;;;7396895;19;20010;-78
2022/09/01 04:57:57;;;;;;;3.50;2.28;;;13.20;99.90;;;;;;7394851;19;20018;-78
2022/09/01 05:00:25;;;;;;;2.85;2.25;;;13.20;99.90;;;;;;7395301;19;20041;-77
2022/09/01 05:03:03;;;;;;;3.42;2.30;;;13.10;99.90;;;;;;7395400;19;20033;-78
2022/09/01 05:05:43;;;;;;;7.55;2.40;;;13.10;99.90;;;;;;7393412;19;20007;-78
2022/09/01 05:08:13;;;;;;;2.70;2.22;;;13.10;99.90;;;;;;7394413;19;20019;-78
2022/09/01 05:10:42;;;;;;;3.50;2.40;;;13.20;99.90;;;;;;7394618;19;20028;-78
2022/09/01 05:13:11;;;;;;;2.92;2.55;;;13.20;99.90;;;;;;7395646;19;20018;-78
2022/09/01 05:15:46;;;;;;;4.47;2.47;;;13.30;99.90;;;;;;7394372;19;20011;-78
2022/09/01 05:18:22;;;;;;;4.55;2.40;;;13.30;99.90;;;;;;7396129;19;20010;-78
2022/09/01 05:20:51;;;;;;;3.58;2.38;;;13.30;99.90;;;;;;7392263;19;20022;-78
2022/09/01 05:23:18;;;;;;;3.67;2.47;;;13.40;99.90;;;;;;7394620;19;20015;-78
2022/09/01 05:25:47;;;;;;;2.65;2.30;;;13.50;99.90;;;;;;7393476;19;20007;-78
2022/09/01 05:28:17;;;;;;;3.20;2.50;;;13.50;99.90;;;;;;7394272;19;20018;-82
2022/09/01 05:30:46;;;;;;;3.13;2.70;;;13.50;99.90;;;;;;7393454;19;20015;-78
2022/09/01 05:33:15;;;;;;;3.97;2.45;;;13.50;99.90;;;;;;7397133;19;20483;-78
2022/09/01 05:35:50;;;;;;;2.75;2.35;;;13.60;99.90;;;;;;7393755;19;20074;-78
2022/09/01 05:38:17;;;;;;;4.30;2.15;;;13.60;99.90;;;;;;7395948;19;20038;-78
2022/09/01 05:40:43;;;;;;;3.47;2.25;;;13.70;99.90;;;;;;7393103;19;20033;-78
2022/09/01 05:43:12;;;;;;;4.57;2.28;;;13.70;99.90;;;;;;7395703;19;20018;-78
2022/09/01 05:45:43;;;;;;;4.00;2.40;;;13.80;99.90;;;;;;7395275;19;20014;-79
2022/09/01 05:48:20;;;;;;;4.13;2.35;;;13.90;99.90;;;;;;7396861;19;20562;-79
2022/09/01 05:50:48;;;;;;;3.05;2.10;;;14.00;99.90;;;;;;7392968;19;20098;-79
2022/09/01 05:53:16;;;;;;;2.63;2.00;;;14.10;99.90;;;;;;7395658;19;20021;-78
2022/09/01 05:55:47;;;;;;;5.53;2.40;;;14.10;99.90;;;;;;7392931;19;20018;-79
2022/09/01 05:58:15;;;;;;;2.80;2.30;;;14.20;99.90;;;;;;7392682;19;20020;-79
2022/09/01 06:00:43;;;;;;;4.63;2.75;;;14.20;99.90;;;;;;7393752;19;20367;-80
2022/09/01 06:03:10;;;;;;;5.00;2.45;;;14.30;99.90;;;;;;7396186;19;20089;-81
2022/09/01 06:05:37;;;;;;;4.53;2.95;;;14.30;99.90;;;;;;7394493;19;20014;-79
2022/09/01 06:08:04;;;;;;;2.67;2.47;;;14.30;99.90;;;;;;7390361;19;20020;-84
2022/09/01 06:10:31;;;;;;;4.03;2.42;;;14.30;99.90;;;;;;7394611;19;20074;-78
2022/09/01 06:13:01;;;;;;;4.28;2.80;;;14.30;99.90;;;;;;7394399;19;20015;-78
2022/09/01 06:15:29;;;;;;;10.23;1.65;;;14.40;99.90;;;;;;7394233;19;20022;-73
2022/09/01 06:17:56;;;;;;;9.50;2.58;;;14.50;99.90;;;;;;7395351;19;20488;-72
2022/09/01 06:20:23;;;;;;;13.63;3.20;;;15.10;99.90;;;;;;7403038;19;20017;-73
2022/09/01 06:22:51;;;;;;;12.75;6.22;;;16.00;99.90;;;;;;7397776;19;20014;-76
2022/09/01 06:25:17;;;;;;;18.38;8.35;;;16.90;99.90;;;;;;7396453;19;20553;-74
2022/09/01 06:27:44;;;;;;;17.88;10.55;;;17.80;99.90;;;;;;7397823;19;20014;-74
2022/09/01 06:30:20;;;;;;;19.52;12.50;;;18.50;99.90;;;;;;7401760;19;20010;-74
2022/09/01 06:32:48;;;;;;;25.70;15.40;;;19.10;99.90;;;;;;7396800;19;20018;-74
2022/09/01 06:35:16;;;;;;;22.75;15.82;;;19.70;99.90;;;;;;7398353;19;20358;-74
2022/09/01 06:37:44;;;;;;;21.38;17.05;;;20.10;99.90;;;;;;7392255;19;20537;-74
2022/09/01 06:40:16;;;;;;;26.85;17.92;;;20.50;99.90;;;;;;7402319;19;20022;-74
2022/09/01 06:42:47;;;;;;;24.85;16.02;;;20.80;99.90;;;;;;7398454;19;20380;-74
2022/09/01 06:45:14;;;;;;;29.35;15.45;;;21.10;99.90;;;;;;7391818;19;20013;-74
2022/09/01 06:47:46;;;;;;;20.73;13.40;;;21.20;99.90;;;;;;7400975;19;20038;-74
2022/09/01 06:50:18;;;;;;;17.52;12.00;;;21.50;99.90;;;;;;7392667;19;20028;-74
2022/09/01 06:52:45;;;;;;;20.40;11.82;;;21.60;99.90;;;;;;7394874;19;20021;-74
2022/09/01 06:55:13;;;;;;;18.60;11.25;;;21.70;99.90;;;;;;7397373;19;20035;-74
2022/09/01 06:57:51;;;;;;;14.02;9.13;;;21.80;99.90;;;;;;7401087;19;20018;-74
2022/09/01 07:00:19;;;;;;;12.30;8.45;;;21.90;99.90;;;;;;7396307;19;20010;-74
2022/09/01 07:02:44;;;;;;;14.02;8.18;;;22.00;99.90;;;;;;7400274;19;20018;-75
2022/09/01 07:05:17;;;;;;;11.35;7.18;;;22.00;99.90;;;;;;7401017;19;20798;-74
2022/09/01 07:07:53;;;;;;;10.27;6.80;;;22.10;99.90;;;;;;7395882;19;20085;-74
2022/09/01 07:10:26;;;;;;;12.82;7.15;;;22.10;99.90;;;;;;7398381;19;20014;-74
2022/09/01 07:12:55;;;;;;;13.93;6.90;;;22.10;99.90;;;;;;7396986;19;20026;-75
2022/09/01 07:15:22;;;;;;;8.63;6.03;;;22.20;99.90;;;;;;7397337;19;20007;-74
2022/09/01 07:17:51;;;;;;;12.40;6.03;;;22.20;99.90;;;;;;7398269;19;20014;-74
2022/09/01 07:20:25;;;;;;;11.93;5.97;;;22.30;99.90;;;;;;7397549;19;20049;-74
2022/09/01 07:22:53;;;;;;;11.55;5.95;;;22.30;99.90;;;;;;7397811;19;20018;-74
2022/09/01 07:25:19;;;;;;;13.07;5.57;;;22.40;99.90;;;;;;7397660;19;20022;-75
2022/09/01 07:27:49;;;;;;;8.70;5.43;;;22.30;99.90;;;;;;7399770;19;20421;-75
2022/09/01 07:30:20;;;;;;;10.80;5.68;;;22.40;99.90;;;;;;7399991;19;20039;-75
2022/09/01 07:32:47;;;;;;;10.50;5.53;;;22.40;99.90;;;;;;7394978;19;20017;-74
2022/09/01 07:35:18;;;;;;;10.68;5.57;;;22.40;99.90;;;;;;7397502;19;20042;-74
2022/09/01 07:37:47;;;;;;;8.40;5.40;;;22.40;99.90;;;;;;7398832;19;20037;-74
2022/09/01 07:40:17;;;;;;;9.55;5.18;;;22.40;99.90;;;;;;7394953;19;20018;-74
2022/09/01 07:42:46;;;;;;;8.25;4.63;;;22.50;99.90;;;;;;7397441;19;20018;-74
2022/09/01 07:45:15;;;;;;;7.82;4.80;;;22.50;99.90;;;;;;7397500;19;20015;-74
2022/09/01 07:47:43;;;;;;;8.63;4.57;;;22.50;99.90;;;;;;7395722;19;20018;-74
2022/09/01 07:50:14;;;;;;;6.43;3.97;;;22.50;99.90;;;;;;7400060;19;20015;-74
2022/09/01 07:52:42;;;;;;;8.10;4.30;;;22.60;99.90;;;;;;7394483;19;20386;-74
2022/09/01 07:55:13;;;;;;;10.48;4.78;;;22.60;99.90;;;;;;7398156;19;20372;-75
2022/09/01 07:57:41;;;;;;;9.10;4.00;;;22.60;99.90;;;;;;7398837;19;20405;-74
2022/09/01 08:00:14;;;;;;;9.50;3.83;;;22.60;99.90;;;;;;7395683;19;20014;-74
2022/09/01 08:02:45;;;;;;;7.78;4.00;;;22.60;99.90;;;;;;7400720;19;20338;-75
2022/09/01 08:05:16;;;;;;;7.82;4.18;;;22.60;99.90;;;;;;7395529;19;20380;-74
2022/09/01 08:07:43;;;;;;;5.68;3.67;;;22.60;99.90;;;;;;7396697;19;20476;-74
2022/09/01 08:10:09;;;;;;;8.00;4.18;;;22.60;99.90;;;;;;7393227;19;20017;-75
2022/09/01 08:12:35;;;;;;;9.05;3.88;;;22.60;99.90;;;;;;7395258;19;20014;-75
2022/09/01 08:15:02;;;;;;;5.47;3.78;;;22.60;99.90;;;;;;7393428;19;20039;-74
2022/09/01 08:17:28;;;;;;;6.78;3.85;;;22.70;99.90;;;;;;7397152;19;20085;-74
2022/09/01 08:19:54;;;;;;;7.07;3.97;;;22.60;99.90;;;;;;7396238;19;20081;-74
2022/09/01 08:22:22;;;;;;;6.82;3.80;;;22.70;99.90;;;;;;7394280;19;20431;-74
2022/09/01 08:24:49;;;;;;;6.60;3.60;;;22.70;99.90;;;;;;7396382;19;20516;-75
2022/09/01 08:27:15;;;;;;;5.47;3.40;;;22.70;99.90;;;;;;7397326;19;20051;-75
2022/09/01 08:29:41;;;;;;;5.88;3.80;;;22.70;99.90;;;;;;7397793;19;20353;-75
2022/09/01 08:32:07;;;;;;;6.18;3.58;;;22.70;99.90;;;;;;7394572;19;20042;-75
2022/09/01 08:34:36;;;;;;;5.15;3.33;;;22.70;99.90;;;;;;7395091;19;20010;-75
2022/09/01 08:37:02;;;;;;;5.93;3.70;;;22.70;99.90;;;;;;7393219;19;20002;-75
2022/09/01 08:39:28;;;;;;;6.38;3.55;;;22.70;99.90;;;;;;7396163;19;20014;-75
2022/09/01 08:42:10;;;;;;;8.65;3.63;;;22.70;99.90;;;;;;7397823;19;20021;-75
2022/09/01 08:45:20;;;;;;;5.93;3.08;;;22.70;99.90;;;;;;7395491;19;20030;-75
2022/09/01 08:47:48;;;;;;;5.18;3.00;;;22.70;99.90;;;;;;7398526;19;20018;-75
2022/09/01 08:50:14;;;;;;;5.20;3.20;;;22.70;99.90;;;;;;7396782;19;20022;-74
2022/09/01 08:52:59;;;;;;;5.80;2.85;;;22.70;99.90;;;;;;7393295;19;20083;-74
2022/09/01 08:55:34;;;;;;;6.88;3.50;;;22.80;99.90;;;;;;7393886;19;20018;-75
2022/09/01 08:58:00;;;;;;;6.70;3.35;;;22.80;99.90;;;;;;7394271;19;20014;-75
2022/09/01 09:00:34;;;;;;;7.47;3.53;;;22.70;99.90;;;;;;7395760;19;20014;-74
2022/09/01 09:03:25;;;;;;;5.75;2.80;;;22.80;99.90;;;;;;7397783;19;20018;-74
2022/09/01 09:06:12;;;;;;;6.18;3.65;;;22.70;99.90;;;;;;7395811;19;20023;-74
2022/09/01 09:08:51;;;;;;;6.32;3.08;;;22.80;99.90;;;;;;7398455;19;20019;-74
2022/09/01 09:11:53;;;;;;;7.40;3.40;;;22.80;99.90;;;;;;7395596;19;20014;-74
2022/09/01 09:14:50;;;;;;;5.47;3.42;;;22.80;99.90;;;;;;7393937;19;20034;-74
2022/09/01 09:17:20;;;;;;;4.75;2.70;;;22.80;99.90;;;;;;7393877;19;20014;-74
2022/09/01 09:19:46;;;;;;;5.07;2.78;;;22.80;99.90;;;;;;7393238;19;20022;-74
2022/09/01 09:22:14;;;;;;;4.13;2.83;;;22.80;99.90;;;;;;7396613;19;20027;-74
2022/09/01 09:24:54;;;;;;;5.40;2.13;;;22.80;99.90;;;;;;7395594;19;20367;-74
2022/09/01 09:27:59;;;;;;;4.22;2.10;;;22.80;99.90;;;;;;7394712;19;20011;-74
2022/09/01 09:30:27;;;;;;;2.78;2.00;;;22.80;99.90;;;;;;7392346;19;20448;-75
2022/09/01 09:33:03;;;;;;;3.28;1.90;;;22.80;99.90;;;;;;7390326;19;20439;-74
2022/09/01 09:35:42;;;;;;;3.88;2.00;;;22.80;99.90;;;;;;7392099;19;20023;-74
2022/09/01 09:38:30;;;;;;;4.15;2.10;;;22.80;99.90;;;;;;7394648;19;20006;-74
2022/09/01 09:41:08;;;;;;;4.25;2.00;;;22.90;99.90;;;;;;7393360;19;20078;-74
2022/09/01 09:43:41;;;;;;;2.63;1.63;;;22.90;99.90;;;;;;7393994;19;20034;-74
2022/09/01 09:46:31;;;;;;;4.90;2.22;;;22.90;99.90;;;;;;7395819;19;20479;-74
2022/09/01 09:49:19;;;;;;;3.35;2.13;;;22.90;99.90;;;;;;7393022;19;20022;-74
2022/09/01 09:52:11;;;;;;;3.70;1.80;;;22.90;99.90;;;;;;7391228;19;20037;-74
2022/09/01 09:54:40;;;;;;;3.83;2.07;;;22.90;99.90;;;;;;7392025;19;20018;-74
2022/09/01 09:57:13;;;;;;;3.10;1.77;;;22.90;99.90;;;;;;7394960;19;20274;-74
2022/09/01 09:59:42;;;;;;;2.95;2.00;;;22.90;99.90;;;;;;7393112;19;20006;-73
2022/09/01 10:02:37;;;;;;;3.92;2.28;;;22.90;99.90;;;;;;7393694;19;20038;-74
2022/09/01 10:05:43;;;;;;;4.05;1.75;;;22.90;99.90;;;;;;7394029;19;20045;-74
2022/09/01 10:08:36;;;;;;;3.45;1.98;;;22.90;99.90;;;;;;7389975;19;20022;-74
2022/09/01 10:11:04;;;;;;;3.05;1.83;;;22.90;99.90;;;;;;7387535;19;20010;-74
2022/09/01 10:13:31;;;;;;;4.03;2.10;;;23.00;99.90;;;;;;7390057;19;20014;-74
2022/09/01 10:16:21;;;;;;;2.85;1.88;;;23.00;99.90;;;;;;7393342;19;20062;-74
2022/09/01 10:18:47;;;;;;;3.45;1.98;;;23.00;99.90;;;;;;7394646;19;20007;-74
2022/09/01 10:21:24;;;;;;;4.28;2.17;;;23.00;99.90;;;;;;7390439;19;20364;-74
2022/09/01 10:23:50;;;;;;;3.13;2.13;;;23.00;99.90;;;;;;7391295;19;20015;-74
2022/09/01 10:26:28;;;;;;;2.92;2.00;;;23.00;99.90;;;;;;7392747;19;20014;-79
2022/09/01 10:28:59;;;;;;;3.25;2.00;;;23.00;99.90;;;;;;7393893;19;20495;-77
2022/09/01 10:31:26;;;;;;;3.65;2.20;;;23.00;99.90;;;;;;7394430;19;20026;-76
2022/09/01 10:33:53;;;;;;;3.22;1.50;;;23.00;99.90;;;;;;7392020;19;20044;-77
2022/09/01 10:36:21;;;;;;;2.60;1.83;;;23.00;99.90;;;;;;7391827;19;20007;-76
2022/09/01 10:38:48;;;;;;;3.08;1.95;;;23.00;99.90;;;;;;7391700;19;20504;-77
2022/09/01 10:41:47;;;;;;;2.25;1.58;;;23.00;99.90;;;;;;7393778;19;20387;-76
2022/09/01 10:44:20;;;;;;;4.28;1.85;;;23.00;99.90;;;;;;7393640;19;20015;-74
2022/09/01 10:46:46;;;;;;;2.05;1.83;;;23.00;99.90;;;;;;7388422;19;20011;-76
2022/09/01 10:49:31;;;;;;;3.58;1.98;;;23.10;99.90;;;;;;7391546;19;20031;-79
2022/09/01 10:51:57;;;;;;;2.55;1.80;;;23.00;99.90;;;;;;7391103;19;20039;-76
2022/09/01 10:54:38;;;;;;;2.15;1.77;;;23.10;99.90;;;;;;7388315;19;20025;-76
2022/09/01 10:57:29;;;;;;;2.55;2.10;;;23.00;99.90;;;;;;7393257;19;20015;-76
2022/09/01 11:00:14;;;;;;;3.65;2.22;;;23.10;99.90;;;;;;7393839;19;20037;-75
2022/09/01 11:02:39;;;;;;;3.83;1.95;;;23.10;99.90;;;;;;7391832;19;20018;-75
2022/09/01 11:05:05;;;;;;;2.90;1.65;;;23.10;99.90;;;;;;7400870;19;20043;-75
2022/09/01 11:07:34;;;;;;;3.20;1.92;;;23.10;99.90;;;;;;7399336;19;20024;-75
2022/09/01 11:10:12;;;;;;;2.80;1.98;;;23.10;99.90;;;;;;7397727;19;20026;-74
2022/09/01 11:13:05;;;;;;;2.80;1.98;;;23.10;99.90;;;;;;7396256;19;20463;-74
2022/09/01 11:15:38;;;;;;;3.10;1.88;;;23.10;99.90;;;;;;7398557;19;20048;-74
2022/09/01 11:18:28;;;;;;;2.40;1.60;;;23.10;99.90;;;;;;7398978;19;20014;-74
2022/09/01 11:20:54;;;;;;;2.90;1.52;;;23.10;99.90;;;;;;7399555;19;20040;-74
2022/09/01 11:23:22;;;;;;;3.47;1.60;;;23.10;99.90;;;;;;7398600;19;20047;-74
2022/09/01 11:26:01;;;;;;;2.42;1.58;;;23.10;99.90;;;;;;7397573;19;20031;-75
2022/09/01 11:28:35;;;;;;;3.03;2.03;;;23.10;99.90;;;;;;7392866;19;20480;-74
2022/09/01 11:31:07;;;;;;;2.00;1.40;;;23.10;99.90;;;;;;7397093;19;20074;-75
2022/09/01 11:33:54;;;;;;;3.13;1.97;;;23.10;99.90;;;;;;7398721;19;20014;-75
2022/09/01 11:36:26;;;;;;;2.17;1.73;;;23.10;99.90;;;;;;7398585;19;20295;-75
2022/09/01 11:39:01;;;;;;;2.33;1.80;;;23.10;99.90;;;;;;7398067;19;20032;-75
2022/09/01 11:41:32;;;;;;;2.35;1.85;;;23.20;99.90;;;;;;7398648;19;20356;-74
2022/09/01 11:44:00;;;;;;;3.05;1.60;;;23.20;99.90;;;;;;7395334;19;20021;-75
2022/09/01 11:46:31;;;;;;;2.15;1.70;;;23.20;99.90;;;;;;7398796;19;20086;-75
2022/09/01 11:49:07;;;;;;;2.28;1.80;;;23.20;99.90;;;;;;7397760;19;20069;-75
2022/09/01 11:51:52;;;;;;;2.97;2.08;;;23.20;99.90;;;;;;7397292;19;20111;-75
2022/09/01 11:54:18;;;;;;;2.85;1.75;;;23.20;99.90;;;;;;7398133;19;20029;-75
2022/09/01 11:56:44;;;;;;;2.17;1.75;;;23.20;99.90;;;;;;7397667;19;20487;-75
2022/09/01 11:59:10;;;;;;;2.55;1.73;;;23.20;99.90;;;;;;7394216;19;20014;-75
2022/09/01 12:01:38;;;;;;;2.00;1.65;;;23.20;99.90;;;;;;7397214;19;20017;-75
2022/09/01 12:04:27;;;;;;;2.30;1.83;;;23.20;99.90;;;;;;7397736;19;20015;-75
2022/09/01 12:06:57;;;;;;;2.42;1.70;;;23.20;99.90;;;;;;7398733;19;20371;-75
2022/09/01 12:09:36;;;;;;;2.53;1.70;;;23.20;99.90;;;;;;7399506;19;20018;-75
2022/09/01 12:12:03;;;;;;;2.95;1.67;;;23.20;99.90;;;;;;7394875;19;20460;-75
2022/09/01 12:14:29;;;;;;;2.58;1.75;;;23.30;99.90;;;;;;7396796;19;20022;-75
2022/09/01 12:17:02;;;;;;;2.88;1.65;;;23.30;99.90;;;;;;7393813;19;20015;-75
2022/09/01 12:19:31;;;;;;;2.88;1.70;;;23.30;99.90;;;;;;7398822;19;20024;-76
2022/09/01 12:22:01;;;;;;;2.38;1.65;;;23.30;99.90;;;;;;7394773;19;20017;-75
2022/09/01 12:24:31;;;;;;;1.60;1.40;;;23.30;99.90;;;;;;7398533;19;20432;-75
2022/09/01 12:26:57;;;;;;;2.15;1.70;;;23.30;99.90;;;;;;7396547;19;20014;-75
2022/09/01 12:29:24;;;;;;;2.58;1.70;;;23.30;99.90;;;;;;7397740;19;20014;-75
2022/09/01 12:31:52;;;;;;;2.35;1.38;;;23.30;99.90;;;;;;7395466;19;20487;-75
2022/09/01 12:34:32;;;;;;;2.47;1.92;;;23.30;99.90;;;;;;7396780;19;20017;-75
2022/09/01 12:37:07;;;;;;;1.80;1.33;;;23.30;99.90;;;;;;7396560;19;20478;-75
2022/09/01 12:39:45;;;;;;;2.22;1.48;;;23.30;99.90;;;;;;7397234;19;20467;-75
2022/09/01 12:42:20;;;;;;;1.65;1.40;;;23.30;99.90;;;;;;7395015;19;20010;-75
2022/09/01 12:44:50;;;;;;;2.78;1.75;;;23.30;99.90;;;;;;7394031;19;20030;-75
2022/09/01 12:47:46;;;;;;;1.92;1.50;;;23.30;99.90;;;;;;7397691;19;20018;-75
2022/09/01 12:50:12;;;;;;;1.63;1.42;;;23.30;99.90;;;;;;7395248;19;20038;-75
2022/09/01 12:52:53;;;;;;;2.00;1.50;;;23.30;99.90;;;;;;7396612;19;20022;-75
2022/09/01 12:55:25;;;;;;;1.77;1.60;;;23.30;99.90;;;;;;7395027;19;20047;-75
2022/09/01 12:57:54;;;;;;;3.00;1.90;;;23.30;99.90;;;;;;7394792;19;20022;-76
2022/09/01 13:00:27;;;;;;;3.03;1.58;;;23.30;99.90;;;;;;7394714;19;20078;-75
2022/09/01 13:03:10;;;;;;;1.30;1.20;;;23.30;99.90;;;;;;7396661;19;20519;-76
2022/09/01 13:05:40;;;;;;;1.75;1.58;;;23.30;99.90;;;;;;7396336;19;20096;-75
2022/09/01 13:08:09;;;;;;;3.65;1.40;;;23.30;99.90;;;;;;7396866;19;20014;-75
2022/09/01 13:10:40;;;;;;;1.98;1.38;;;23.30;99.90;;;;;;7394664;19;20017;-76